Time;durP1;ratioP1;P1;durP2;ratioP2;P2;SDS_P1;SDS_P2;PMS_P1;PMS_P2;Temp;Humidity;BMP_temperature;BMP_pressure;BME280_temperature;BME280_humidity;BME280_pressure;Samples;Min_cycle;Max_cycle;Signal;HPM_P1;HPM_P2
2022/07/16 00:02:58;;;;;;;0.50;0.50;;;16.10;99.90;;;;;;5058881;28;20209;-71
2022/07/16 00:05:46;;;;;;;0.50;0.50;;;16.10;99.90;;;;;;5059243;28;20243;-72
2022/07/16 00:08:34;;;;;;;0.40;0.40;;;16.10;99.90;;;;;;5059168;28;20221;-70
2022/07/16 00:11:23;;;;;;;0.40;0.40;;;16.10;99.90;;;;;;5057890;28;20212;-70
2022/07/16 00:14:12;;;;;;;0.50;0.50;;;16.00;99.90;;;;;;5058260;28;20266;-72
2022/07/16 00:17:00;;;;;;;1.45;1.45;;;16.00;99.90;;;;;;5058411;28;20201;-71
2022/07/16 00:19:48;;;;;;;0.40;0.40;;;16.00;99.90;;;;;;5058361;28;20218;-73
2022/07/16 00:22:36;;;;;;;0.40;0.40;;;16.00;99.90;;;;;;5058795;28;20221;-71
2022/07/16 00:25:25;;;;;;;0.50;0.50;;;15.90;99.90;;;;;;5058164;28;20207;-71
2022/07/16 00:28:13;;;;;;;0.40;0.40;;;15.90;99.90;;;;;;5058215;28;20720;-71
2022/07/16 00:31:01;;;;;;;0.40;0.40;;;15.90;99.90;;;;;;5045143;28;20198;-71
2022/07/16 00:33:50;;;;;;;0.40;0.40;;;15.90;99.90;;;;;;5047037;28;20208;-70
2022/07/16 00:36:40;;;;;;;0.40;0.40;;;15.90;99.90;;;;;;5038851;28;20206;-73
2022/07/16 00:39:28;;;;;;;0.50;0.50;;;15.90;99.90;;;;;;5038530;28;20580;-70
2022/07/16 00:42:17;;;;;;;0.47;0.47;;;15.90;99.90;;;;;;5038622;28;20229;-70
2022/07/16 00:45:07;;;;;;;0.40;0.40;;;15.90;99.90;;;;;;5039451;28;20206;-69
2022/07/16 00:47:56;;;;;;;0.40;0.40;;;15.90;99.90;;;;;;5038162;28;20228;-72
2022/07/16 00:50:44;;;;;;;0.40;0.40;;;15.80;99.90;;;;;;5038537;28;20592;-71
2022/07/16 00:53:35;;;;;;;0.40;0.40;;;15.80;99.90;;;;;;5037109;28;20194;-73
2022/07/16 00:56:24;;;;;;;0.40;0.40;;;15.80;99.90;;;;;;5042370;28;20198;-73
2022/07/16 00:59:12;;;;;;;0.50;0.50;;;15.80;99.90;;;;;;5057245;28;20201;-70
2022/07/16 01:02:01;;;;;;;0.40;0.40;;;15.70;99.90;;;;;;5062760;28;20627;-70
2022/07/16 01:04:49;;;;;;;0.50;0.50;;;15.70;99.90;;;;;;5065210;28;20201;-69
2022/07/16 01:07:38;;;;;;;0.45;0.45;;;15.60;99.90;;;;;;5064718;28;20307;-71
2022/07/16 01:10:28;;;;;;;0.40;0.40;;;15.60;99.90;;;;;;5063534;28;20213;-69
2022/07/16 01:13:18;;;;;;;0.40;0.40;;;15.60;99.90;;;;;;5048557;28;20208;-72
2022/07/16 01:16:08;;;;;;;0.50;0.50;;;15.60;99.90;;;;;;5044722;28;20206;-70
2022/07/16 01:18:56;;;;;;;0.40;0.40;;;15.50;99.90;;;;;;5043718;28;20276;-68
2022/07/16 01:21:44;;;;;;;0.40;0.40;;;15.60;99.90;;;;;;5045393;28;20222;-69
2022/07/16 01:24:34;;;;;;;0.50;0.50;;;15.50;99.90;;;;;;5046436;28;20205;-70
2022/07/16 01:27:22;;;;;;;0.47;0.47;;;15.50;99.90;;;;;;5046490;28;20218;-70
2022/07/16 01:30:11;;;;;;;0.45;0.45;;;15.50;99.90;;;;;;5040876;28;20206;-69
2022/07/16 01:32:59;;;;;;;0.50;0.50;;;15.50;99.90;;;;;;5036982;28;20241;-69
2022/07/16 01:35:47;;;;;;;0.50;0.50;;;15.50;99.90;;;;;;5036230;28;20206;-72
2022/07/16 01:38:38;;;;;;;0.50;0.50;;;15.50;99.90;;;;;;5037682;28;20280;-69
2022/07/16 01:41:27;;;;;;;0.50;0.50;;;15.50;99.90;;;;;;5037282;28;20225;-69
2022/07/16 01:44:17;;;;;;;0.50;0.50;;;15.40;99.90;;;;;;5037800;28;20202;-70
2022/07/16 01:47:07;;;;;;;0.40;0.40;;;15.40;99.90;;;;;;5038075;28;20209;-72
2022/07/16 01:49:55;;;;;;;0.40;0.40;;;15.40;99.90;;;;;;5037364;28;20671;-69
2022/07/16 01:52:43;;;;;;;0.40;0.40;;;15.40;99.90;;;;;;5037138;28;20202;-72
2022/07/16 01:55:31;;;;;;;0.40;0.40;;;15.40;99.90;;;;;;5037871;28;20479;-71
2022/07/16 01:58:21;;;;;;;0.57;0.57;;;15.30;99.90;;;;;;5055004;28;20237;-71
2022/07/16 02:01:09;;;;;;;0.40;0.40;;;15.30;99.90;;;;;;5064803;28;20201;-70
2022/07/16 02:03:57;;;;;;;0.50;0.50;;;15.30;99.90;;;;;;5056025;28;20201;-72
2022/07/16 02:06:46;;;;;;;0.40;0.40;;;15.30;99.90;;;;;;5056817;28;20212;-70
2022/07/16 02:09:34;;;;;;;0.40;0.40;;;15.30;99.90;;;;;;5056046;28;20209;-69
2022/07/16 02:12:22;;;;;;;0.40;0.40;;;15.30;99.90;;;;;;5056490;28;20198;-71
2022/07/16 02:15:13;;;;;;;0.40;0.40;;;15.30;99.90;;;;;;5057214;28;20664;-72
2022/07/16 02:18:01;;;;;;;0.40;0.40;;;15.30;99.90;;;;;;5057280;28;20221;-71
2022/07/16 02:20:49;;;;;;;0.47;0.47;;;15.40;99.90;;;;;;5056486;28;20201;-72
2022/07/16 02:23:37;;;;;;;0.40;0.40;;;15.40;99.90;;;;;;5054853;28;20221;-71
2022/07/16 02:26:26;;;;;;;0.40;0.40;;;15.40;99.90;;;;;;5055902;28;20204;-70
2022/07/16 02:29:14;;;;;;;0.50;0.50;;;15.40;99.90;;;;;;5055617;28;20444;-72
2022/07/16 02:32:04;;;;;;;0.40;0.40;;;15.50;99.90;;;;;;5057203;28;20198;-72
2022/07/16 02:34:52;;;;;;;0.50;0.50;;;15.40;99.90;;;;;;5059653;28;20609;-73
2022/07/16 02:37:41;;;;;;;0.40;0.40;;;15.50;99.90;;;;;;5055923;28;20701;-71
2022/07/16 02:40:29;;;;;;;0.40;0.40;;;15.50;99.90;;;;;;5057430;28;20709;-74
2022/07/16 02:43:18;;;;;;;0.40;0.40;;;15.50;99.90;;;;;;5059204;28;20221;-71
2022/07/16 02:46:06;;;;;;;0.50;0.50;;;15.50;99.90;;;;;;5057284;28;20205;-71
2022/07/16 02:48:56;;;;;;;0.43;0.43;;;15.50;99.90;;;;;;5056077;28;20221;-73
2022/07/16 02:51:44;;;;;;;0.40;0.40;;;15.50;99.90;;;;;;5055525;28;20204;-72
2022/07/16 02:54:32;;;;;;;0.50;0.50;;;15.50;99.90;;;;;;5056536;28;20677;-71
2022/07/16 02:57:20;;;;;;;0.50;0.50;;;15.50;99.90;;;;;;5056146;28;20825;-70
2022/07/16 03:00:11;;;;;;;0.40;0.40;;;15.50;99.90;;;;;;5054520;28;20198;-73
2022/07/16 03:02:59;;;;;;;0.40;0.40;;;15.50;99.90;;;;;;5054398;28;20228;-72
2022/07/16 03:05:49;;;;;;;0.60;0.60;;;15.60;99.90;;;;;;5054493;28;20262;-70
2022/07/16 03:08:37;;;;;;;0.40;0.40;;;15.60;99.90;;;;;;5055191;28;20228;-71
2022/07/16 03:11:25;;;;;;;0.40;0.40;;;15.60;99.90;;;;;;5054470;28;20202;-72
2022/07/16 03:14:13;;;;;;;0.40;0.40;;;15.60;99.90;;;;;;5055371;28;20197;-72
2022/07/16 03:17:01;;;;;;;0.47;0.47;;;15.70;99.90;;;;;;5055111;28;20618;-73
2022/07/16 03:19:49;;;;;;;0.50;0.50;;;15.70;99.90;;;;;;5055414;28;20200;-73
2022/07/16 03:22:43;;;;;;;0.50;0.50;;;15.70;99.90;;;;;;5054683;28;20232;-70
2022/07/16 03:25:31;;;;;;;0.40;0.40;;;15.70;99.90;;;;;;5035018;28;20202;-71
2022/07/16 03:28:19;;;;;;;0.50;0.50;;;15.70;99.90;;;;;;5035826;28;20222;-71
2022/07/16 03:31:08;;;;;;;0.40;0.40;;;15.70;99.90;;;;;;5035170;28;20202;-73
2022/07/16 03:33:56;;;;;;;0.40;0.40;;;15.70;99.90;;;;;;5034871;28;20216;-71
2022/07/16 03:36:44;;;;;;;0.40;0.40;;;15.70;99.90;;;;;;5035184;28;20687;-73
2022/07/16 03:39:34;;;;;;;0.50;0.50;;;15.80;99.90;;;;;;5034856;28;20198;-69
2022/07/16 03:42:22;;;;;;;0.63;0.63;;;15.80;99.90;;;;;;5034813;28;20205;-69
2022/07/16 03:45:10;;;;;;;0.50;0.50;;;15.80;99.90;;;;;;5035138;28;20655;-70
2022/07/16 03:47:59;;;;;;;0.50;0.50;;;15.80;99.90;;;;;;5034541;28;20604;-70
2022/07/16 03:50:47;;;;;;;0.40;0.40;;;15.90;99.90;;;;;;5034185;28;21292;-69
2022/07/16 03:53:35;;;;;;;0.50;0.50;;;15.90;99.90;;;;;;5034135;28;20194;-71
2022/07/16 03:56:25;;;;;;;0.40;0.40;;;16.00;99.90;;;;;;5037126;28;20197;-70
2022/07/16 03:59:13;;;;;;;0.50;0.50;;;16.00;99.90;;;;;;5042928;28;20686;-73
2022/07/16 04:02:02;;;;;;;0.40;0.40;;;16.00;99.90;;;;;;5055184;28;20276;-70
2022/07/16 04:04:50;;;;;;;0.50;0.50;;;16.10;99.90;;;;;;5053638;28;20676;-71
2022/07/16 04:07:38;;;;;;;0.50;0.50;;;16.10;99.90;;;;;;5054224;28;20226;-71
2022/07/16 04:10:26;;;;;;;0.50;0.50;;;16.20;99.90;;;;;;5053489;28;20197;-70
2022/07/16 04:13:16;;;;;;;0.40;0.40;;;16.20;99.90;;;;;;5055010;28;20197;-73
2022/07/16 04:16:05;;;;;;;0.40;0.40;;;16.30;99.90;;;;;;5054547;28;20211;-71
2022/07/16 04:18:53;;;;;;;0.50;0.50;;;16.40;99.90;;;;;;5054403;28;20241;-71
2022/07/16 04:21:41;;;;;;;0.50;0.50;;;16.40;99.90;;;;;;5054549;28;20209;-71
2022/07/16 04:24:30;;;;;;;0.40;0.40;;;16.50;99.90;;;;;;5054455;28;20217;-69
2022/07/16 04:27:18;;;;;;;0.47;0.47;;;16.50;99.90;;;;;;5053022;28;20244;-71
2022/07/16 04:30:10;;;;;;;0.52;0.52;;;16.50;99.90;;;;;;5052910;28;20587;-70
2022/07/16 04:32:58;;;;;;;0.50;0.50;;;16.50;99.90;;;;;;5053855;28;20200;-70
2022/07/16 04:35:48;;;;;;;0.60;0.60;;;16.50;99.90;;;;;;5056818;28;20201;-69
2022/07/16 04:38:36;;;;;;;0.40;0.40;;;16.50;99.90;;;;;;5057543;28;20297;-71
2022/07/16 04:41:25;;;;;;;0.50;0.50;;;16.50;99.90;;;;;;5051183;28;20205;-69
2022/07/16 04:44:13;;;;;;;0.40;0.40;;;16.50;99.90;;;;;;5054699;28;20217;-72
2022/07/16 04:47:03;;;;;;;0.50;0.50;;;16.60;99.90;;;;;;5056340;28;20212;-71
2022/07/16 04:49:51;;;;;;;0.50;0.50;;;16.60;99.90;;;;;;5057854;28;20205;-69
2022/07/16 04:52:39;;;;;;;0.70;0.70;;;16.60;99.90;;;;;;5056417;28;20208;-70
2022/07/16 04:55:28;;;;;;;0.60;0.60;;;16.70;99.90;;;;;;5056436;28;20583;-72
2022/07/16 04:58:16;;;;;;;0.50;0.50;;;16.60;99.90;;;;;;5038383;28;20229;-69
2022/07/16 05:01:04;;;;;;;0.60;0.60;;;16.60;99.90;;;;;;5036490;28;20214;-70
2022/07/16 05:03:54;;;;;;;0.50;0.50;;;16.60;99.90;;;;;;5037079;28;20222;-70
2022/07/16 05:06:42;;;;;;;0.40;0.40;;;16.60;99.90;;;;;;5038188;28;20198;-69
2022/07/16 05:09:30;;;;;;;0.50;0.50;;;16.60;99.90;;;;;;5036455;28;20205;-70
2022/07/16 05:12:18;;;;;;;0.50;0.50;;;16.80;99.90;;;;;;5049651;28;20210;-69
2022/07/16 05:15:07;;;;;;;0.60;0.60;;;16.70;99.90;;;;;;5057425;28;20193;-71
2022/07/16 05:17:55;;;;;;;0.40;0.40;;;16.80;99.90;;;;;;5057717;28;20237;-71
2022/07/16 05:20:45;;;;;;;0.50;0.50;;;16.80;99.90;;;;;;5056271;28;20331;-69
2022/07/16 05:23:34;;;;;;;0.40;0.40;;;16.90;99.90;;;;;;5055929;28;20232;-71
2022/07/16 05:26:23;;;;;;;0.40;0.40;;;16.90;99.90;;;;;;5056141;28;20201;-71
2022/07/16 05:29:11;;;;;;;0.50;0.50;;;17.00;99.90;;;;;;5056997;28;20201;-72
2022/07/16 05:31:59;;;;;;;0.98;0.70;;;17.00;99.90;;;;;;5056719;28;20228;-70
2022/07/16 05:34:48;;;;;;;0.85;0.85;;;17.10;99.90;;;;;;5056846;28;20193;-70
2022/07/16 05:37:37;;;;;;;0.40;0.40;;;17.10;99.90;;;;;;5055087;28;20724;-71
2022/07/16 05:40:26;;;;;;;0.50;0.50;;;17.10;99.90;;;;;;5055978;28;20257;-71
2022/07/16 05:43:14;;;;;;;0.60;0.60;;;17.30;99.90;;;;;;5056379;28;20208;-70
2022/07/16 05:46:02;;;;;;;0.50;0.50;;;17.30;99.90;;;;;;5054857;28;20228;-70
2022/07/16 05:48:50;;;;;;;0.40;0.40;;;17.30;99.90;;;;;;5057323;28;20217;-72
2022/07/16 05:51:39;;;;;;;0.88;0.70;;;17.30;99.90;;;;;;5056225;28;20208;-70
2022/07/16 05:54:29;;;;;;;0.40;0.40;;;17.30;99.90;;;;;;5056082;28;20198;-71
2022/07/16 05:57:17;;;;;;;0.50;0.50;;;17.30;99.90;;;;;;5056347;28;20360;-70
2022/07/16 06:00:08;;;;;;;0.40;0.40;;;17.20;99.90;;;;;;5056508;28;20583;-71
2022/07/16 06:02:59;;;;;;;2.58;0.70;;;17.20;99.90;;;;;;5035343;28;20585;-70
2022/07/16 06:05:48;;;;;;;0.60;0.60;;;17.10;99.90;;;;;;5034891;28;20280;-70
2022/07/16 06:08:36;;;;;;;0.40;0.40;;;17.10;99.90;;;;;;5035078;28;20226;-71
2022/07/16 06:11:26;;;;;;;0.50;0.50;;;17.00;99.90;;;;;;5034610;28;20206;-70
2022/07/16 06:14:14;;;;;;;0.60;0.60;;;17.00;99.90;;;;;;5034985;28;20205;-70
2022/07/16 06:17:02;;;;;;;0.40;0.40;;;17.10;99.90;;;;;;5035570;28;20281;-70
2022/07/16 06:19:51;;;;;;;0.50;0.50;;;17.10;99.90;;;;;;5034772;28;20592;-70
2022/07/16 06:22:40;;;;;;;0.60;0.60;;;17.20;99.90;;;;;;5034341;28;20198;-71
2022/07/16 06:25:33;;;;;;;0.50;0.50;;;17.20;99.90;;;;;;5035212;28;20283;-70
2022/07/16 06:28:22;;;;;;;0.98;0.98;;;16.90;99.90;;;;;;5034566;28;20221;-70
2022/07/16 06:31:10;;;;;;;0.40;0.40;;;16.60;99.90;;;;;;5034320;28;20206;-72
2022/07/16 06:33:58;;;;;;;0.50;0.50;;;16.30;99.90;;;;;;5034784;28;20209;-71
2022/07/16 06:36:46;;;;;;;0.70;0.70;;;16.10;99.90;;;;;;5033831;28;20209;-72
2022/07/16 06:39:35;;;;;;;0.50;0.50;;;15.70;99.90;;;;;;5033740;28;20209;-71
2022/07/16 06:42:23;;;;;;;0.60;0.60;;;15.30;99.90;;;;;;5038931;28;20418;-72
2022/07/16 06:45:12;;;;;;;0.40;0.40;;;15.10;99.90;;;;;;5044588;28;20218;-71
2022/07/16 06:48:00;;;;;;;0.50;0.50;;;14.80;99.90;;;;;;5036118;28;20441;-70
2022/07/16 06:50:49;;;;;;;0.40;0.40;;;14.80;99.90;;;;;;5035193;28;20520;-72
2022/07/16 06:53:38;;;;;;;1.27;1.10;;;14.80;99.90;;;;;;5039406;28;20209;-71
2022/07/16 06:56:27;;;;;;;0.80;0.80;;;14.90;99.90;;;;;;5044462;28;20428;-72
2022/07/16 06:59:15;;;;;;;1.80;0.87;;;14.90;99.90;;;;;;5058301;28;20428;-70
2022/07/16 07:02:04;;;;;;;0.60;0.60;;;14.90;99.90;;;;;;5043734;28;20550;-71
2022/07/16 07:04:52;;;;;;;0.80;0.80;;;15.10;99.90;;;;;;5056651;28;20474;-71
2022/07/16 07:07:41;;;;;;;0.73;0.73;;;15.30;99.90;;;;;;5058105;28;20589;-71
2022/07/16 07:10:29;;;;;;;0.50;0.50;;;15.50;99.90;;;;;;5058184;28;20416;-71
2022/07/16 07:13:17;;;;;;;0.40;0.40;;;15.70;99.90;;;;;;5056054;28;20440;-71
2022/07/16 07:16:06;;;;;;;0.70;0.70;;;16.10;99.90;;;;;;5057930;28;20424;-71
2022/07/16 07:18:56;;;;;;;1.33;0.93;;;16.50;99.90;;;;;;5054531;28;20233;-70
2022/07/16 07:21:44;;;;;;;0.80;0.80;;;16.90;99.90;;;;;;5056199;28;20201;-70
2022/07/16 07:24:32;;;;;;;1.35;1.25;;;17.10;99.90;;;;;;5055859;28;20224;-70
2022/07/16 07:27:36;;;;;;;0.70;0.70;;;17.30;99.90;;;;;;5054224;28;20220;-71
2022/07/16 07:30:24;;;;;;;0.65;0.60;;;17.30;99.90;;;;;;5052599;28;20202;-71
2022/07/16 07:33:14;;;;;;;0.60;0.60;;;17.40;99.90;;;;;;5055032;28;20205;-70
2022/07/16 07:36:04;;;;;;;0.40;0.40;;;17.50;99.90;;;;;;5055093;28;20205;-71
2022/07/16 07:38:52;;;;;;;0.60;0.60;;;17.60;99.90;;;;;;5054010;28;20229;-71
2022/07/16 07:41:40;;;;;;;0.93;0.88;;;17.60;99.90;;;;;;5053880;28;20224;-72
2022/07/16 07:44:28;;;;;;;0.40;0.40;;;17.70;99.90;;;;;;5054206;28;20213;-70
2022/07/16 07:47:17;;;;;;;0.60;0.60;;;17.70;99.90;;;;;;5054265;28;20224;-70
2022/07/16 07:50:06;;;;;;;0.80;0.80;;;17.90;99.90;;;;;;5053680;28;20197;-71
2022/07/16 07:52:56;;;;;;;0.57;0.57;;;18.00;99.90;;;;;;5053117;28;20203;-71
2022/07/16 07:55:44;;;;;;;0.65;0.65;;;18.10;99.90;;;;;;5054333;28;20610;-72
2022/07/16 07:58:34;;;;;;;0.50;0.50;;;17.90;99.90;;;;;;5033999;28;20277;-71
2022/07/16 08:01:22;;;;;;;0.55;0.55;;;17.90;99.90;;;;;;5033488;28;20281;-70
2022/07/16 08:04:13;;;;;;;0.60;0.60;;;17.80;99.90;;;;;;5034026;28;20693;-70
2022/07/16 08:07:02;;;;;;;2.25;1.00;;;17.90;99.90;;;;;;5032698;28;20272;-70
2022/07/16 08:09:52;;;;;;;0.50;0.50;;;18.20;99.90;;;;;;5034115;28;20224;-70
2022/07/16 08:12:41;;;;;;;0.45;0.45;;;18.30;99.90;;;;;;5031981;28;20679;-71
2022/07/16 08:15:29;;;;;;;0.50;0.50;;;18.20;99.90;;;;;;5032416;28;20198;-73
2022/07/16 08:18:17;;;;;;;0.98;0.82;;;18.30;99.90;;;;;;5032281;28;20607;-74
2022/07/16 08:21:06;;;;;;;0.50;0.50;;;18.30;99.90;;;;;;5035483;28;20206;-71
2022/07/16 08:27:01;;;;;;;0.50;0.50;;;18.70;99.90;;;;;;5036477;28;20198;-70
2022/07/16 08:29:50;;;;;;;0.60;0.60;;;18.60;99.90;;;;;;5034781;28;20582;-71
2022/07/16 08:32:38;;;;;;;0.90;0.90;;;18.80;99.90;;;;;;5036649;28;20257;-70
2022/07/16 08:35:26;;;;;;;1.58;1.33;;;18.70;99.90;;;;;;5036847;28;20205;-71
2022/07/16 08:38:15;;;;;;;0.55;0.55;;;18.80;99.90;;;;;;5041626;28;20233;-70
2022/07/16 08:41:03;;;;;;;0.50;0.50;;;19.00;99.90;;;;;;5064378;28;20205;-70
2022/07/16 08:43:53;;;;;;;0.50;0.50;;;19.10;99.90;;;;;;5056359;28;20201;-71
2022/07/16 08:46:42;;;;;;;0.40;0.40;;;19.00;99.90;;;;;;5057566;28;20225;-72
2022/07/16 08:49:30;;;;;;;0.82;0.70;;;19.00;99.90;;;;;;5036647;28;20581;-74
2022/07/16 08:52:21;;;;;;;0.70;0.70;;;19.10;99.90;;;;;;5035113;28;20198;-74
2022/07/16 08:55:10;;;;;;;1.10;0.70;;;19.30;99.90;;;;;;5035907;28;20660;-72
2022/07/16 08:57:58;;;;;;;0.40;0.40;;;19.30;99.90;;;;;;5051145;28;20594;-76
2022/07/16 09:00:48;;;;;;;0.60;0.60;;;19.40;99.90;;;;;;5053532;28;20206;-72
2022/07/16 09:03:36;;;;;;;0.50;0.50;;;19.20;99.90;;;;;;5056475;28;20212;-72
2022/07/16 09:06:25;;;;;;;0.50;0.50;;;19.10;99.90;;;;;;5055520;28;20248;-72
2022/07/16 09:09:13;;;;;;;0.73;0.73;;;19.00;99.90;;;;;;5055238;28;20212;-71
2022/07/16 09:12:02;;;;;;;0.50;0.50;;;18.80;99.90;;;;;;5056455;28;20583;-70
2022/07/16 09:14:50;;;;;;;0.55;0.55;;;18.70;99.90;;;;;;5055941;28;20200;-70
2022/07/16 09:17:39;;;;;;;0.50;0.50;;;18.70;99.90;;;;;;5055175;28;20232;-71
2022/07/16 09:20:31;;;;;;;0.60;0.60;;;18.90;99.90;;;;;;5055028;28;20209;-71
2022/07/16 09:23:22;;;;;;;0.40;0.40;;;19.00;99.90;;;;;;5053500;28;20205;-74
2022/07/16 09:26:12;;;;;;;0.68;0.68;;;19.40;99.90;;;;;;5052603;28;20225;-71
2022/07/16 09:29:04;;;;;;;0.40;0.40;;;19.50;99.90;;;;;;5053504;28;20228;-71
2022/07/16 09:31:55;;;;;;;0.70;0.70;;;19.30;99.90;;;;;;5054017;28;20197;-70
2022/07/16 09:34:45;;;;;;;1.15;0.73;;;19.00;99.90;;;;;;5055084;28;20205;-72
2022/07/16 09:37:47;;;;;;;0.50;0.50;;;18.70;99.90;;;;;;5054181;28;20632;-69
2022/07/16 09:40:37;;;;;;;0.50;0.50;;;18.60;99.90;;;;;;5053936;28;20200;-70
2022/07/16 09:43:26;;;;;;;4.57;1.42;;;18.80;99.90;;;;;;5054602;28;20209;-72
2022/07/16 09:46:19;;;;;;;0.40;0.40;;;19.10;99.90;;;;;;5053198;28;20244;-73
2022/07/16 09:49:07;;;;;;;0.40;0.40;;;19.30;99.90;;;;;;5053022;28;20248;-73
2022/07/16 09:51:57;;;;;;;0.90;0.90;;;19.50;99.90;;;;;;5052378;28;20283;-76
2022/07/16 09:54:45;;;;;;;0.80;0.60;;;19.80;99.90;;;;;;5052881;28;20198;-70
2022/07/16 09:57:33;;;;;;;0.40;0.40;;;20.10;99.90;;;;;;5051157;28;20221;-73
2022/07/16 10:00:21;;;;;;;0.52;0.52;;;20.10;99.90;;;;;;5052048;28;20224;-71
2022/07/16 10:03:10;;;;;;;0.68;0.68;;;20.10;99.90;;;;;;5052862;28;20204;-76
2022/07/16 10:05:58;;;;;;;0.50;0.50;;;20.40;99.90;;;;;;5051740;28;20699;-74
2022/07/16 10:08:48;;;;;;;0.50;0.50;;;20.30;99.90;;;;;;5053084;28;20221;-71
2022/07/16 10:11:36;;;;;;;0.50;0.50;;;20.00;99.90;;;;;;5053785;28;20201;-71
2022/07/16 10:14:26;;;;;;;0.50;0.50;;;19.80;99.90;;;;;;5053817;28;20206;-70
2022/07/16 10:17:17;;;;;;;0.50;0.50;;;19.90;99.90;;;;;;5018318;28;1006341;-72
2022/07/16 10:20:08;;;;;;;0.40;0.40;;;20.10;99.90;;;;;;5068421;22;20225;-70
2022/07/16 10:22:58;;;;;;;0.60;0.60;;;20.60;99.90;;;;;;5053476;28;20578;-70
2022/07/16 10:25:58;;;;;;;0.60;0.60;;;20.90;99.90;;;;;;5053917;28;20274;-71
2022/07/16 10:28:49;;;;;;;0.40;0.40;;;21.00;99.90;;;;;;5053457;28;20209;-71
2022/07/16 10:31:40;;;;;;;1.67;0.60;;;20.90;99.90;;;;;;5053574;28;20224;-71
2022/07/16 10:34:40;;;;;;;0.50;0.50;;;20.80;99.90;;;;;;5053403;28;20209;-71
2022/07/16 10:37:33;;;;;;;0.50;0.50;;;20.70;99.90;;;;;;5054483;28;20201;-71
2022/07/16 10:40:24;;;;;;;0.50;0.50;;;20.50;99.90;;;;;;5054176;28;20217;-70
2022/07/16 10:43:16;;;;;;;0.50;0.50;;;20.80;99.90;;;;;;5054252;28;20194;-71
2022/07/16 10:46:05;;;;;;;0.40;0.40;;;21.10;99.90;;;;;;5054396;28;20221;-71
2022/07/16 10:49:16;;;;;;;0.60;0.60;;;21.00;99.90;;;;;;5053134;28;20228;-71
2022/07/16 10:52:08;;;;;;;1.02;0.93;;;20.70;99.30;;;;;;5053033;28;20201;-71
2022/07/16 10:55:02;;;;;;;0.57;0.57;;;20.80;99.70;;;;;;5054176;28;20209;-71
2022/07/16 10:57:52;;;;;;;7.32;5.15;;;20.90;99.60;;;;;;5053366;28;20193;-71
2022/07/16 11:00:41;;;;;;;0.40;0.40;;;20.90;99.30;;;;;;5061261;28;20213;-70
2022/07/16 11:03:31;;;;;;;2.90;1.40;;;20.50;99.40;;;;;;5062385;28;20251;-70
2022/07/16 11:06:20;;;;;;;0.93;0.50;;;20.60;99.30;;;;;;5056639;28;20335;-71
2022/07/16 11:09:09;;;;;;;0.40;0.40;;;20.60;98.90;;;;;;5054048;28;20224;-71
2022/07/16 11:12:07;;;;;;;1.25;0.70;;;20.70;98.80;;;;;;5052968;28;20194;-71
2022/07/16 11:14:57;;;;;;;0.60;0.60;;;20.50;98.80;;;;;;5053355;28;20201;-71
2022/07/16 11:17:55;;;;;;;0.60;0.60;;;20.40;98.00;;;;;;5053536;28;20200;-71
2022/07/16 11:20:45;;;;;;;1.15;0.50;;;20.20;98.70;;;;;;5053073;28;20314;-71
2022/07/16 11:23:47;;;;;;;0.93;0.70;;;20.00;98.00;;;;;;5053756;28;20197;-71
2022/07/16 11:26:35;;;;;;;0.50;0.50;;;20.00;98.40;;;;;;5053856;28;20225;-70
2022/07/16 11:29:24;;;;;;;0.50;0.50;;;20.40;97.80;;;;;;5052716;28;20737;-71
2022/07/16 11:32:14;;;;;;;0.40;0.40;;;21.00;97.40;;;;;;5052655;28;20197;-71
2022/07/16 11:35:06;;;;;;;1.10;0.50;;;21.20;96.10;;;;;;5052267;28;20210;-71
2022/07/16 11:37:57;;;;;;;0.60;0.60;;;21.00;95.10;;;;;;5052776;28;20440;-71
2022/07/16 11:40:48;;;;;;;0.40;0.40;;;20.60;94.10;;;;;;5052262;28;20236;-71
2022/07/16 11:43:37;;;;;;;3.05;1.88;;;20.30;94.70;;;;;;5052089;28;20201;-71
2022/07/16 11:46:26;;;;;;;1.40;1.40;;;20.20;93.70;;;;;;5052285;28;20213;-70
2022/07/16 11:49:24;;;;;;;0.40;0.40;;;20.30;93.30;;;;;;5052558;28;20213;-70
2022/07/16 11:52:24;;;;;;;0.63;0.63;;;20.60;92.40;;;;;;5051711;28;20202;-71
2022/07/16 11:55:13;;;;;;;0.50;0.50;;;20.70;91.20;;;;;;5052245;28;20587;-71
2022/07/16 11:58:02;;;;;;;0.50;0.50;;;20.90;91.50;;;;;;5053297;28;20195;-71
2022/07/16 12:00:50;;;;;;;0.40;0.40;;;21.10;90.90;;;;;;5052808;28;20225;-71
2022/07/16 12:03:38;;;;;;;0.68;0.68;;;21.10;90.10;;;;;;5052107;28;20231;-71
2022/07/16 12:06:26;;;;;;;0.50;0.50;;;20.90;87.60;;;;;;5051998;28;20205;-71
2022/07/16 12:09:31;;;;;;;2.95;0.47;;;20.80;87.60;;;;;;5053203;28;20221;-70
2022/07/16 12:12:23;;;;;;;0.50;0.50;;;21.00;86.60;;;;;;5051762;28;20211;-70
2022/07/16 12:15:12;;;;;;;0.55;0.55;;;21.00;82.20;;;;;;5053777;28;20247;-72
2022/07/16 12:18:13;;;;;;;0.50;0.50;;;21.10;81.50;;;;;;5053189;28;20197;-72
2022/07/16 12:21:27;;;;;;;0.40;0.40;;;21.20;79.40;;;;;;5052831;28;20666;-71
2022/07/16 12:24:15;;;;;;;0.50;0.50;;;21.30;79.40;;;;;;5052269;28;20201;-71
2022/07/16 12:27:04;;;;;;;0.50;0.50;;;21.40;80.10;;;;;;5052208;28;20213;-71
2022/07/16 12:29:52;;;;;;;0.50;0.50;;;21.10;79.20;;;;;;5052307;28;20217;-70
2022/07/16 12:32:48;;;;;;;0.50;0.50;;;21.00;77.50;;;;;;5052003;28;20202;-70
2022/07/16 12:35:38;;;;;;;0.40;0.40;;;20.60;77.50;;;;;;5051179;28;20284;-71
2022/07/16 12:38:41;;;;;;;1.38;1.10;;;20.60;77.90;;;;;;5051990;28;20205;-70
2022/07/16 12:41:32;;;;;;;0.52;0.52;;;20.80;78.50;;;;;;5051095;28;20196;-71
2022/07/16 12:44:21;;;;;;;0.50;0.50;;;21.30;77.90;;;;;;5050965;28;20284;-71
2022/07/16 12:47:10;;;;;;;0.40;0.40;;;22.00;76.60;;;;;;5051112;28;20686;-71
2022/07/16 12:49:58;;;;;;;0.40;0.40;;;23.20;75.50;;;;;;5050816;28;20214;-71
2022/07/16 12:52:46;;;;;;;0.40;0.40;;;24.70;71.90;;;;;;5051276;28;20662;-71
2022/07/16 12:58:48;;;;;;;0.40;0.40;;;27.90;63.60;;;;;;5031926;28;20206;-72
2022/07/16 13:01:43;;;;;;;0.75;0.75;;;28.10;59.40;;;;;;5030796;28;20583;-71
2022/07/16 13:04:31;;;;;;;0.90;0.57;;;29.10;57.40;;;;;;5033466;28;20198;-71
2022/07/16 13:07:19;;;;;;;0.40;0.40;;;28.10;57.50;;;;;;5035754;28;20717;-71
2022/07/16 13:10:10;;;;;;;0.45;0.45;;;26.70;59.80;;;;;;5035460;28;20217;-71
2022/07/16 13:12:59;;;;;;;0.40;0.40;;;26.70;59.60;;;;;;5035540;28;20701;-71
2022/07/16 13:15:47;;;;;;;0.57;0.57;;;26.00;59.10;;;;;;5037827;28;20583;-71
2022/07/16 13:18:37;;;;;;;0.77;0.50;;;27.00;59.40;;;;;;5037026;28;20198;-72
2022/07/16 13:21:27;;;;;;;0.40;0.40;;;29.10;56.10;;;;;;5035283;28;20202;-71
2022/07/16 13:24:15;;;;;;;0.50;0.40;;;29.10;55.10;;;;;;5035894;28;20206;-72
2022/07/16 13:27:04;;;;;;;0.40;0.40;;;27.90;54.60;;;;;;5035269;28;20287;-71
2022/07/16 13:30:09;;;;;;;0.63;0.63;;;28.30;54.50;;;;;;5034174;28;20307;-71
2022/07/16 13:32:58;;;;;;;3.45;0.60;;;30.40;52.90;;;;;;5035832;28;20202;-71
2022/07/16 13:35:48;;;;;;;1.35;0.70;;;31.60;50.50;;;;;;5034870;28;20205;-71
2022/07/16 13:38:37;;;;;;;0.50;0.50;;;31.30;48.10;;;;;;5034423;28;20575;-71
2022/07/16 13:41:26;;;;;;;0.50;0.50;;;31.70;47.70;;;;;;5035522;28;20221;-72
2022/07/16 13:44:14;;;;;;;2.15;0.60;;;30.90;48.50;;;;;;5033806;28;20249;-71
2022/07/16 13:47:03;;;;;;;0.40;0.40;;;32.00;47.80;;;;;;5035037;28;20202;-71
2022/07/16 13:49:51;;;;;;;0.40;0.40;;;30.60;47.70;;;;;;5034362;28;20222;-71
2022/07/16 13:52:40;;;;;;;0.40;0.40;;;28.70;50.10;;;;;;5034687;28;20194;-71
2022/07/16 13:55:28;;;;;;;0.40;0.40;;;28.20;50.50;;;;;;5034072;28;20198;-71
2022/07/16 13:58:18;;;;;;;0.50;0.50;;;26.70;52.20;;;;;;5053596;28;20202;-71
2022/07/16 14:01:08;;;;;;;0.40;0.40;;;27.40;52.90;;;;;;5052977;28;20202;-72
2022/07/16 14:03:56;;;;;;;0.40;0.40;;;29.70;50.70;;;;;;5055168;28;20201;-72
2022/07/16 14:06:44;;;;;;;1.90;0.80;;;31.70;47.50;;;;;;5054928;28;20604;-72
2022/07/16 14:09:34;;;;;;;0.50;0.50;;;30.60;47.10;;;;;;5053746;28;20237;-72
2022/07/16 14:12:22;;;;;;;0.50;0.50;;;28.70;48.80;;;;;;5053663;28;20204;-71
2022/07/16 14:15:12;;;;;;;0.60;0.60;;;27.90;50.30;;;;;;5054710;28;20231;-72
2022/07/16 14:18:03;;;;;;;0.82;0.60;;;29.60;49.80;;;;;;5053356;28;20193;-72
2022/07/16 14:20:52;;;;;;;0.40;0.40;;;30.40;48.40;;;;;;5053380;28;20308;-72
2022/07/16 14:23:40;;;;;;;0.50;0.50;;;30.40;47.80;;;;;;5053059;28;20688;-72
2022/07/16 14:26:30;;;;;;;0.40;0.40;;;28.10;49.30;;;;;;5054595;28;20293;-72
2022/07/16 14:29:18;;;;;;;0.60;0.40;;;28.00;50.60;;;;;;5053189;28;20255;-72
2022/07/16 14:32:09;;;;;;;0.40;0.40;;;29.50;49.30;;;;;;5053762;28;20209;-72
2022/07/16 14:34:57;;;;;;;0.40;0.40;;;31.60;47.30;;;;;;5054029;28;20583;-72
2022/07/16 14:37:47;;;;;;;0.40;0.40;;;31.60;45.90;;;;;;5053455;28;20275;-72
2022/07/16 14:40:35;;;;;;;0.40;0.40;;;29.30;47.90;;;;;;5053452;28;20213;-72
2022/07/16 14:43:24;;;;;;;0.40;0.40;;;27.30;50.40;;;;;;5054292;28;20202;-72
2022/07/16 14:46:13;;;;;;;1.15;0.85;;;27.50;51.10;;;;;;5055027;28;20205;-71
2022/07/16 14:49:01;;;;;;;0.63;0.63;;;27.80;50.70;;;;;;5054104;28;20233;-71
2022/07/16 14:51:49;;;;;;;0.57;0.55;;;27.30;51.40;;;;;;5053977;28;20201;-72